sensor_id;sensor_type;location;lat;lon;timestamp;pressure;altitude;pressure_sealevel;temperature;humidity
55315;BME280;41619;42.816;23.226;2023-01-31T00:01:14;95113.47;;;-1.42;69.13
55315;BME280;41619;42.816;23.226;2023-01-31T00:03:40;95117.75;;;-1.41;69.15
55315;BME280;41619;42.816;23.226;2023-01-31T00:06:18;95109.69;;;-1.41;69.32
55315;BME280;41619;42.816;23.226;2023-01-31T00:08:45;95113.47;;;-1.42;68.85
55315;BME280;41619;42.816;23.226;2023-01-31T00:11:12;95111.59;;;-1.42;69.15
55315;BME280;41619;42.816;23.226;2023-01-31T00:13:38;95114.25;;;-1.42;69.12
55315;BME280;41619;42.816;23.226;2023-01-31T00:16:04;95113.47;;;-1.42;69.28
55315;BME280;41619;42.816;23.226;2023-01-31T00:18:30;95109.50;;;-1.45;69.16
55315;BME280;41619;42.816;23.226;2023-01-31T00:20:56;95107.91;;;-1.46;69.49
55315;BME280;41619;42.816;23.226;2023-01-31T00:23:21;95094.78;;;-1.47;69.33
55315;BME280;41619;42.816;23.226;2023-01-31T00:25:47;95095.34;;;-1.50;69.66
55315;BME280;41619;42.816;23.226;2023-01-31T00:28:12;95092.66;;;-1.50;69.38
55315;BME280;41619;42.816;23.226;2023-01-31T00:30:38;95096.44;;;-1.52;69.59
55315;BME280;41619;42.816;23.226;2023-01-31T00:33:03;95096.16;;;-1.50;69.75
55315;BME280;41619;42.816;23.226;2023-01-31T00:35:28;95093.47;;;-1.50;69.38
55315;BME280;41619;42.816;23.226;2023-01-31T00:37:54;95095.06;;;-1.49;69.43
55315;BME280;41619;42.816;23.226;2023-01-31T00:40:19;95092.38;;;-1.49;69.64
55315;BME280;41619;42.816;23.226;2023-01-31T00:42:45;95092.38;;;-1.49;69.44
55315;BME280;41619;42.816;23.226;2023-01-31T00:45:11;95083.53;;;-1.49;69.47
55315;BME280;41619;42.816;23.226;2023-01-31T00:47:36;95088.19;;;-1.55;69.37
55315;BME280;41619;42.816;23.226;2023-01-31T00:50:02;95089.41;;;-1.61;69.59
55315;BME280;41619;42.816;23.226;2023-01-31T00:52:28;95089.19;;;-1.65;69.30
55315;BME280;41619;42.816;23.226;2023-01-31T00:54:53;95103.19;;;-1.68;69.58
55315;BME280;41619;42.816;23.226;2023-01-31T00:57:19;95106.47;;;-1.71;69.38
55315;BME280;41619;42.816;23.226;2023-01-31T00:59:44;95100.09;;;-1.75;69.44
55315;BME280;41619;42.816;23.226;2023-01-31T01:02:09;95099.91;;;-1.78;69.31
55315;BME280;41619;42.816;23.226;2023-01-31T01:04:35;95092.16;;;-1.80;69.11
55315;BME280;41619;42.816;23.226;2023-01-31T01:07:00;95096.22;;;-1.83;69.15
55315;BME280;41619;42.816;23.226;2023-01-31T01:09:26;95094.03;;;-1.80;69.24
55315;BME280;41619;42.816;23.226;2023-01-31T01:11:51;95091.84;;;-1.78;69.38
55315;BME280;41619;42.816;23.226;2023-01-31T01:14:16;95091.25;;;-1.75;69.60
55315;BME280;41619;42.816;23.226;2023-01-31T01:16:42;95087.38;;;-1.69;69.61
55315;BME280;41619;42.816;23.226;2023-01-31T01:19:12;95089.19;;;-1.65;69.56
55315;BME280;41619;42.816;23.226;2023-01-31T01:21:37;95085.13;;;-1.62;69.51
55315;BME280;41619;42.816;23.226;2023-01-31T01:24:06;95080.06;;;-1.64;69.85
55315;BME280;41619;42.816;23.226;2023-01-31T01:26:33;95084.81;;;-1.61;69.54
55315;BME280;41619;42.816;23.226;2023-01-31T01:29:00;95082.94;;;-1.60;69.63
55315;BME280;41619;42.816;23.226;2023-01-31T01:31:26;95088.00;;;-1.59;69.42
55315;BME280;41619;42.816;23.226;2023-01-31T01:34:00;95081.25;;;-1.56;69.27
55315;BME280;41619;42.816;23.226;2023-01-31T01:36:26;95088.19;;;-1.55;69.71
55315;BME280;41619;42.816;23.226;2023-01-31T01:38:52;95088.19;;;-1.55;69.94
55315;BME280;41619;42.816;23.226;2023-01-31T01:41:18;95095.66;;;-1.52;69.70
55315;BME280;41619;42.816;23.226;2023-01-31T01:43:53;95092.38;;;-1.49;69.67
55315;BME280;41619;42.816;23.226;2023-01-31T01:46:40;95080.84;;;-1.49;69.68
55315;BME280;41619;42.816;23.226;2023-01-31T01:49:50;95086.72;;;-1.47;69.70
55315;BME280;41619;42.816;23.226;2023-01-31T01:52:08;95080.56;;;-1.48;69.45
55315;BME280;41619;42.816;23.226;2023-01-31T01:54:44;95088.31;;;-1.46;69.74
55315;BME280;41619;42.816;23.226;2023-01-31T01:57:16;95076.00;;;-1.47;69.58
55315;BME280;41619;42.816;23.226;2023-01-31T01:59:46;95085.94;;;-1.48;70.19
55315;BME280;41619;42.816;23.226;2023-01-31T02:02:13;95089.19;;;-1.51;69.86
55315;BME280;41619;42.816;23.226;2023-01-31T02:04:41;95088.09;;;-1.50;70.12
55315;BME280;41619;42.816;23.226;2023-01-31T02:07:09;95083.53;;;-1.49;70.28
55315;BME280;41619;42.816;23.226;2023-01-31T02:12:03;95079.56;;;-1.52;69.79
55315;BME280;41619;42.816;23.226;2023-01-31T02:14:28;95089.00;;;-1.55;69.97
55315;BME280;41619;42.816;23.226;2023-01-31T02:16:54;95083.72;;;-1.60;70.08
55315;BME280;41619;42.816;23.226;2023-01-31T02:45:58;95114.56;;;-1.30;69.48
55315;BME280;41619;42.816;23.226;2023-01-31T02:51:19;95114.97;;;-1.23;69.32
55315;BME280;41619;42.816;23.226;2023-01-31T02:53:50;95123.50;;;-1.20;69.52
55315;BME280;41619;42.816;23.226;2023-01-31T02:56:31;95128.59;;;-1.19;69.09
55315;BME280;41619;42.816;23.226;2023-01-31T02:59:07;95128.09;;;-1.21;69.09
55315;BME280;41619;42.816;23.226;2023-01-31T03:01:37;95138.03;;;-1.22;69.22
55315;BME280;41619;42.816;23.226;2023-01-31T03:04:06;95143.41;;;-1.22;69.14
55315;BME280;41619;42.816;23.226;2023-01-31T03:09:11;95153.34;;;-1.22;69.36
55315;BME280;41619;42.816;23.226;2023-01-31T03:23:21;95170.34;;;-1.27;69.05
55315;BME280;41619;42.816;23.226;2023-01-31T03:25:49;95174.63;;;-1.26;68.86
55315;BME280;41619;42.816;23.226;2023-01-31T03:28:19;95174.94;;;-1.27;68.94
55315;BME280;41619;42.816;23.226;2023-01-31T03:33:31;95177.13;;;-1.29;69.37
55315;BME280;41619;42.816;23.226;2023-01-31T03:39:18;95186.28;;;-1.30;69.25
55315;BME280;41619;42.816;23.226;2023-01-31T03:42:01;95184.94;;;-1.33;69.84
55315;BME280;41619;42.816;23.226;2023-01-31T03:44:36;95178.50;;;-1.32;69.59
55315;BME280;41619;42.816;23.226;2023-01-31T03:47:13;95197.28;;;-1.32;69.54
55315;BME280;41619;42.816;23.226;2023-01-31T03:49:41;95191.66;;;-1.30;69.44
55315;BME280;41619;42.816;23.226;2023-01-31T03:52:09;95194.31;;;-1.30;69.95
55315;BME280;41619;42.816;23.226;2023-01-31T03:54:45;95191.34;;;-1.29;69.51
55315;BME280;41619;42.816;23.226;2023-01-31T03:57:27;95188.34;;;-1.27;69.71
55315;BME280;41619;42.816;23.226;2023-01-31T03:59:56;95190.25;;;-1.28;69.76
55315;BME280;41619;42.816;23.226;2023-01-31T04:02:27;95198.81;;;-1.26;69.57
55315;BME280;41619;42.816;23.226;2023-01-31T04:05:03;95205.75;;;-1.25;69.87
55315;BME280;41619;42.816;23.226;2023-01-31T04:07:30;95201.47;;;-1.26;69.57
55315;BME280;41619;42.816;23.226;2023-01-31T04:09:56;95209.84;;;-1.27;69.70
55315;BME280;41619;42.816;23.226;2023-01-31T04:12:22;95206.34;;;-1.28;69.96
55315;BME280;41619;42.816;23.226;2023-01-31T04:14:48;95205.25;;;-1.27;69.89
55315;BME280;41619;42.816;23.226;2023-01-31T04:17:13;95210.03;;;-1.24;70.11
55315;BME280;41619;42.816;23.226;2023-01-31T04:19:38;95211.94;;;-1.24;70.39
55315;BME280;41619;42.816;23.226;2023-01-31T04:22:04;95204.16;;;-1.26;70.18
55315;BME280;41619;42.816;23.226;2023-01-31T04:24:29;95216.31;;;-1.28;70.37
55315;BME280;41619;42.816;23.226;2023-01-31T04:26:54;95218.75;;;-1.32;70.68
55315;BME280;41619;42.816;23.226;2023-01-31T04:29:20;95207.31;;;-1.37;70.70
55315;BME280;41619;42.816;23.226;2023-01-31T04:31:45;95212.00;;;-1.43;70.86
55315;BME280;41619;42.816;23.226;2023-01-31T04:34:11;95213.09;;;-1.44;71.11
55315;BME280;41619;42.816;23.226;2023-01-31T04:36:36;95217.66;;;-1.44;71.32
55315;BME280;41619;42.816;23.226;2023-01-31T04:39:02;95214.59;;;-1.38;71.20
55315;BME280;41619;42.816;23.226;2023-01-31T04:41:28;95205.63;;;-1.33;71.35
55315;BME280;41619;42.816;23.226;2023-01-31T04:43:53;95218.19;;;-1.29;71.23
55315;BME280;41619;42.816;23.226;2023-01-31T04:46:19;95222.16;;;-1.26;71.16
55315;BME280;41619;42.816;23.226;2023-01-31T04:48:44;95218.59;;;-1.22;71.09
55315;BME280;41619;42.816;23.226;2023-01-31T04:51:10;95218.78;;;-1.18;71.49
55315;BME280;41619;42.816;23.226;2023-01-31T04:53:35;95217.88;;;-1.13;71.21
55315;BME280;41619;42.816;23.226;2023-01-31T04:56:01;95230.44;;;-1.09;71.77
55315;BME280;41619;42.816;23.226;2023-01-31T04:58:27;95233.34;;;-1.05;71.57
55315;BME280;41619;42.816;23.226;2023-01-31T05:00:53;95228.47;;;-1.03;71.68
55315;BME280;41619;42.816;23.226;2023-01-31T05:03:19;95210.75;;;-1.04;71.56
55315;BME280;41619;42.816;23.226;2023-01-31T05:05:47;95219.91;;;-1.05;71.41
55315;BME280;41619;42.816;23.226;2023-01-31T05:08:12;95228.75;;;-1.05;71.46
55315;BME280;41619;42.816;23.226;2023-01-31T05:10:38;95228.75;;;-1.05;71.42
55315;BME280;41619;42.816;23.226;2023-01-31T05:13:04;95233.34;;;-1.05;72.07
55315;BME280;41619;42.816;23.226;2023-01-31T05:15:29;95236.03;;;-1.05;71.77
55315;BME280;41619;42.816;23.226;2023-01-31T05:17:55;95234.94;;;-1.04;71.60
55315;BME280;41619;42.816;23.226;2023-01-31T05:20:31;95231.75;;;-1.06;71.71
55315;BME280;41619;42.816;23.226;2023-01-31T05:22:58;95228.88;;;-1.10;72.16
55315;BME280;41619;42.816;23.226;2023-01-31T05:25:24;95231.03;;;-1.12;71.98
55315;BME280;41619;42.816;23.226;2023-01-31T05:27:51;95227.03;;;-1.14;72.37
55315;BME280;41619;42.816;23.226;2023-01-31T05:30:17;95233.22;;;-1.14;72.12
55315;BME280;41619;42.816;23.226;2023-01-31T05:32:43;95238.59;;;-1.14;72.45
55315;BME280;41619;42.816;23.226;2023-01-31T05:35:10;95235.59;;;-1.12;72.28
55315;BME280;41619;42.816;23.226;2023-01-31T05:37:36;95234.53;;;-1.11;72.23
55315;BME280;41619;42.816;23.226;2023-01-31T05:40:01;95233.44;;;-1.10;72.78
55315;BME280;41619;42.816;23.226;2023-01-31T05:42:27;95237.91;;;-1.06;72.73
55315;BME280;41619;42.816;23.226;2023-01-31T05:44:52;95236.53;;;-1.03;72.46
55315;BME280;41619;42.816;23.226;2023-01-31T05:47:17;95244.78;;;-1.00;72.73
55315;BME280;41619;42.816;23.226;2023-01-31T05:49:43;95248.44;;;-0.96;72.55
55315;BME280;41619;42.816;23.226;2023-01-31T05:52:08;95248.38;;;-0.90;72.44
55315;BME280;41619;42.816;23.226;2023-01-31T05:54:34;95247.47;;;-0.86;72.41
55315;BME280;41619;42.816;23.226;2023-01-31T05:56:59;95246.56;;;-0.81;72.36
55315;BME280;41619;42.816;23.226;2023-01-31T05:59:24;95242.69;;;-0.75;72.47
55315;BME280;41619;42.816;23.226;2023-01-31T06:01:50;95244.50;;;-0.71;71.95
55315;BME280;41619;42.816;23.226;2023-01-31T06:04:16;95245.78;;;-0.68;72.52
55315;BME280;41619;42.816;23.226;2023-01-31T06:06:41;95243.31;;;-0.65;72.16
55315;BME280;41619;42.816;23.226;2023-01-31T06:09:06;95245.88;;;-0.59;72.41
55315;BME280;41619;42.816;23.226;2023-01-31T06:11:32;95242.59;;;-0.56;72.26
55315;BME280;41619;42.816;23.226;2023-01-31T06:13:57;95250.88;;;-0.53;72.49
55315;BME280;41619;42.816;23.226;2023-01-31T06:16:23;95248.97;;;-0.52;71.99
55315;BME280;41619;42.816;23.226;2023-01-31T06:18:49;95247.88;;;-0.51;71.69
55315;BME280;41619;42.816;23.226;2023-01-31T06:21:14;95265.09;;;-0.52;72.27
55315;BME280;41619;42.816;23.226;2023-01-31T06:23:40;95265.91;;;-0.52;72.04
55315;BME280;41619;42.816;23.226;2023-01-31T06:26:10;95257.84;;;-0.52;72.30
55315;BME280;41619;42.816;23.226;2023-01-31T06:28:36;95266.22;;;-0.53;72.34
55315;BME280;41619;42.816;23.226;2023-01-31T06:31:08;95268.09;;;-0.54;72.71
55315;BME280;41619;42.816;23.226;2023-01-31T06:33:34;95268.91;;;-0.53;72.71
55315;BME280;41619;42.816;23.226;2023-01-31T06:36:00;95275.88;;;-0.52;72.23
55315;BME280;41619;42.816;23.226;2023-01-31T06:38:27;95268.09;;;-0.54;72.39
55315;BME280;41619;42.816;23.226;2023-01-31T06:40:53;95264.88;;;-0.56;72.95
55315;BME280;41619;42.816;23.226;2023-01-31T06:43:18;95256.81;;;-0.56;72.60
55315;BME280;41619;42.816;23.226;2023-01-31T06:45:43;95263.81;;;-0.55;72.35
55315;BME280;41619;42.816;23.226;2023-01-31T06:48:10;95263.53;;;-0.53;72.67
55315;BME280;41619;42.816;23.226;2023-01-31T06:50:36;95255.66;;;-0.50;72.61
55315;BME280;41619;42.816;23.226;2023-01-31T06:53:01;95266.59;;;-0.46;72.81
55315;BME280;41619;42.816;23.226;2023-01-31T06:55:27;95269.47;;;-0.43;72.39
55315;BME280;41619;42.816;23.226;2023-01-31T06:57:52;95266.97;;;-0.39;72.44
55315;BME280;41619;42.816;23.226;2023-01-31T07:00:19;95276.06;;;-0.35;72.83
55315;BME280;41619;42.816;23.226;2023-01-31T07:02:45;95281.94;;;-0.33;72.67
55315;BME280;41619;42.816;23.226;2023-01-31T07:05:11;95282.13;;;-0.29;72.80
55315;BME280;41619;42.816;23.226;2023-01-31T07:07:37;95284.00;;;-0.30;72.79
55315;BME280;41619;42.816;23.226;2023-01-31T07:10:02;95278.34;;;-0.28;72.91
55315;BME280;41619;42.816;23.226;2023-01-31T07:12:28;95275.34;;;-0.27;72.67
55315;BME280;41619;42.816;23.226;2023-01-31T07:14:53;95281.81;;;-0.28;72.62
55315;BME280;41619;42.816;23.226;2023-01-31T07:17:18;95278.81;;;-0.26;72.84
55315;BME280;41619;42.816;23.226;2023-01-31T07:19:46;95273.94;;;-0.24;72.50
55315;BME280;41619;42.816;23.226;2023-01-31T07:22:12;95284.59;;;-0.19;72.98
55315;BME280;41619;42.816;23.226;2023-01-31T07:24:37;95287.19;;;-0.14;73.12
55315;BME280;41619;42.816;23.226;2023-01-31T07:27:03;95285.19;;;-0.09;72.45
55315;BME280;41619;42.816;23.226;2023-01-31T07:29:28;95284.97;;;0.02;72.92
55315;BME280;41619;42.816;23.226;2023-01-31T07:31:54;95291.53;;;0.09;72.86
55315;BME280;41619;42.816;23.226;2023-01-31T07:34:19;95291.88;;;0.16;73.09
55315;BME280;41619;42.816;23.226;2023-01-31T07:36:50;95291.19;;;0.24;72.72
55315;BME280;41619;42.816;23.226;2023-01-31T07:39:16;95293.75;;;0.29;72.25
55315;BME280;41619;42.816;23.226;2023-01-31T07:41:42;95289.97;;;0.30;72.29
55315;BME280;41619;42.816;23.226;2023-01-31T07:44:08;95293.16;;;0.33;71.84
55315;BME280;41619;42.816;23.226;2023-01-31T07:46:36;95290.44;;;0.33;71.79
55315;BME280;41619;42.816;23.226;2023-01-31T07:49:02;95283.19;;;0.33;72.01
55315;BME280;41619;42.816;23.226;2023-01-31T07:51:27;95285.56;;;0.35;72.27
55315;BME280;41619;42.816;23.226;2023-01-31T07:53:52;95288.47;;;0.38;72.26
55315;BME280;41619;42.816;23.226;2023-01-31T07:56:19;95288.66;;;0.42;72.23
55315;BME280;41619;42.816;23.226;2023-01-31T07:58:47;95286.13;;;0.45;71.74
55315;BME280;41619;42.816;23.226;2023-01-31T08:01:19;95279.66;;;0.46;72.21
55315;BME280;41619;42.816;23.226;2023-01-31T08:04:05;95291.09;;;0.52;72.14
55315;BME280;41619;42.816;23.226;2023-01-31T08:06:31;95288.78;;;0.59;72.42
55315;BME280;41619;42.816;23.226;2023-01-31T08:08:57;95303.28;;;0.72;72.01
55315;BME280;41619;42.816;23.226;2023-01-31T08:11:23;95297.66;;;0.82;72.17
55315;BME280;41619;42.816;23.226;2023-01-31T08:13:48;95304.00;;;0.86;72.20
55315;BME280;41619;42.816;23.226;2023-01-31T08:16:14;95294.19;;;0.90;71.89
55315;BME280;41619;42.816;23.226;2023-01-31T08:18:40;95304.09;;;0.95;71.65
55315;BME280;41619;42.816;23.226;2023-01-31T08:21:06;95292.19;;;0.96;71.38
55315;BME280;41619;42.816;23.226;2023-01-31T08:23:32;95291.72;;;0.94;71.43
55315;BME280;41619;42.816;23.226;2023-01-31T08:26:03;95292.19;;;0.96;71.15
55315;BME280;41619;42.816;23.226;2023-01-31T08:28:29;95289.06;;;1.02;71.59
55315;BME280;41619;42.816;23.226;2023-01-31T08:30:55;95289.22;;;1.06;71.18
55315;BME280;41619;42.816;23.226;2023-01-31T08:33:21;95291.19;;;1.14;70.93
55315;BME280;41619;42.816;23.226;2023-01-31T08:35:47;95287.84;;;1.48;71.86
55315;BME280;41619;42.816;23.226;2023-01-31T08:38:12;95298.53;;;2.27;71.15
55315;BME280;41619;42.816;23.226;2023-01-31T08:40:38;95283.59;;;3.92;70.16
55315;BME280;41619;42.816;23.226;2023-01-31T08:43:03;95281.06;;;5.45;67.35
55315;BME280;41619;42.816;23.226;2023-01-31T08:45:29;95272.59;;;7.13;64.92
55315;BME280;41619;42.816;23.226;2023-01-31T08:47:58;95283.41;;;8.67;61.91
55315;BME280;41619;42.816;23.226;2023-01-31T08:50:27;95278.09;;;9.74;59.01
55315;BME280;41619;42.816;23.226;2023-01-31T08:52:54;95276.41;;;10.61;56.94
55315;BME280;41619;42.816;23.226;2023-01-31T08:55:21;95279.53;;;10.14;55.33
55315;BME280;41619;42.816;23.226;2023-01-31T08:57:47;95288.75;;;8.98;56.28
55315;BME280;41619;42.816;23.226;2023-01-31T09:00:13;95294.84;;;8.37;57.22
55315;BME280;41619;42.816;23.226;2023-01-31T09:02:39;95298.72;;;8.05;57.53
55315;BME280;41619;42.816;23.226;2023-01-31T09:05:04;95287.00;;;7.57;58.15
55315;BME280;41619;42.816;23.226;2023-01-31T09:07:32;95282.59;;;7.09;58.71
55315;BME280;41619;42.816;23.226;2023-01-31T09:09:58;95279.50;;;6.82;58.50
55315;BME280;41619;42.816;23.226;2023-01-31T09:12:23;95270.28;;;6.59;59.17
55315;BME280;41619;42.816;23.226;2023-01-31T09:14:49;95262.38;;;6.54;59.19
55315;BME280;41619;42.816;23.226;2023-01-31T09:17:15;95278.44;;;6.59;59.43
55315;BME280;41619;42.816;23.226;2023-01-31T09:19:40;95270.38;;;6.62;59.38
55315;BME280;41619;42.816;23.226;2023-01-31T09:22:06;95258.47;;;6.67;59.48
55315;BME280;41619;42.816;23.226;2023-01-31T09:24:31;95257.25;;;6.64;59.02
55315;BME280;41619;42.816;23.226;2023-01-31T09:26:56;95257.75;;;6.42;58.65
55315;BME280;41619;42.816;23.226;2023-01-31T09:29:22;95248.25;;;6.36;58.41
55315;BME280;41619;42.816;23.226;2023-01-31T09:31:51;95245.66;;;6.27;58.62
55315;BME280;41619;42.816;23.226;2023-01-31T09:34:17;95242.50;;;6.25;58.68
55315;BME280;41619;42.816;23.226;2023-01-31T09:36:43;95225.75;;;6.23;58.55
55315;BME280;41619;42.816;23.226;2023-01-31T09:39:10;95220.09;;;6.16;58.19
55315;BME280;41619;42.816;23.226;2023-01-31T09:41:46;95215.00;;;6.15;58.44
55315;BME280;41619;42.816;23.226;2023-01-31T09:44:19;95213.53;;;6.17;58.49
55315;BME280;41619;42.816;23.226;2023-01-31T09:46:54;95212.63;;;6.13;57.62
55315;BME280;41619;42.816;23.226;2023-01-31T09:49:26;95220.22;;;6.07;58.13
55315;BME280;41619;42.816;23.226;2023-01-31T09:51:59;95218.72;;;6.22;57.42
55315;BME280;41619;42.816;23.226;2023-01-31T09:54:37;95221.19;;;6.27;57.65
55315;BME280;41619;42.816;23.226;2023-01-31T09:57:25;95216.09;;;6.26;57.90
55315;BME280;41619;42.816;23.226;2023-01-31T10:00:02;95211.03;;;6.24;57.58
55315;BME280;41619;42.816;23.226;2023-01-31T10:02:53;95196.19;;;6.22;57.28
55315;BME280;41619;42.816;23.226;2023-01-31T10:05:39;95193.81;;;6.32;58.91
55315;BME280;41619;42.816;23.226;2023-01-31T10:08:19;95187.84;;;6.98;61.90
55315;BME280;41619;42.816;23.226;2023-01-31T10:10:55;95186.41;;;8.50;61.34
55315;BME280;41619;42.816;23.226;2023-01-31T10:16:53;95198.00;;;11.50;52.65
55315;BME280;41619;42.816;23.226;2023-01-31T10:19:05;95192.88;;;11.08;49.66
55315;BME280;41619;42.816;23.226;2023-01-31T10:21:38;95195.94;;;10.13;49.23
55315;BME280;41619;42.816;23.226;2023-01-31T10:24:43;95197.59;;;9.03;49.97
55315;BME280;41619;42.816;23.226;2023-01-31T10:27:17;95201.66;;;8.35;50.88
55315;BME280;41619;42.816;23.226;2023-01-31T10:29:48;95211.41;;;8.01;52.15
55315;BME280;41619;42.816;23.226;2023-01-31T10:32:33;95198.44;;;7.63;52.23
55315;BME280;41619;42.816;23.226;2023-01-31T10:35:13;95189.66;;;7.38;52.94
55315;BME280;41619;42.816;23.226;2023-01-31T10:37:45;95193.69;;;7.13;53.25
55315;BME280;41619;42.816;23.226;2023-01-31T10:42:45;95191.50;;;6.75;52.97
55315;BME280;41619;42.816;23.226;2023-01-31T10:45:20;95192.69;;;6.49;53.55
55315;BME280;41619;42.816;23.226;2023-01-31T10:47:53;95186.75;;;6.31;53.45
55315;BME280;41619;42.816;23.226;2023-01-31T10:50:56;95190.69;;;6.46;53.90
55315;BME280;41619;42.816;23.226;2023-01-31T10:56:27;95193.69;;;6.85;54.22
55315;BME280;41619;42.816;23.226;2023-01-31T10:58:57;95193.22;;;6.67;53.92
55315;BME280;41619;42.816;23.226;2023-01-31T11:01:24;95198.91;;;6.34;54.06
55315;BME280;41619;42.816;23.226;2023-01-31T11:03:51;95191.09;;;6.20;54.71
55315;BME280;41619;42.816;23.226;2023-01-31T11:06:18;95201.19;;;6.20;54.28
55315;BME280;41619;42.816;23.226;2023-01-31T11:08:48;95194.28;;;6.22;54.40
55315;BME280;41619;42.816;23.226;2023-01-31T11:11:17;95189.34;;;6.00;54.50
55315;BME280;41619;42.816;23.226;2023-01-31T11:14:00;95196.81;;;5.78;55.00
55315;BME280;41619;42.816;23.226;2023-01-31T11:16:31;95200.19;;;5.51;54.82
55315;BME280;41619;42.816;23.226;2023-01-31T11:19:00;95199.84;;;5.28;55.54
55315;BME280;41619;42.816;23.226;2023-01-31T11:21:32;95201.94;;;5.10;55.91
55315;BME280;41619;42.816;23.226;2023-01-31T11:24:14;95212.53;;;4.91;56.06
55315;BME280;41619;42.816;23.226;2023-01-31T11:26:49;95214.16;;;4.71;56.10
55315;BME280;41619;42.816;23.226;2023-01-31T11:29:19;95218.38;;;4.60;56.98
55315;BME280;41619;42.816;23.226;2023-01-31T11:31:47;95219.00;;;4.45;56.92
55315;BME280;41619;42.816;23.226;2023-01-31T11:34:24;95215.03;;;4.21;57.41
55315;BME280;41619;42.816;23.226;2023-01-31T11:36:51;95236.38;;;4.02;58.00
55315;BME280;41619;42.816;23.226;2023-01-31T11:39:36;95235.69;;;3.84;58.56
55315;BME280;41619;42.816;23.226;2023-01-31T11:42:09;95229.22;;;3.68;58.37
55315;BME280;41619;42.816;23.226;2023-01-31T11:44:36;95224.66;;;3.60;58.81
55315;BME280;41619;42.816;23.226;2023-01-31T11:47:03;95230.09;;;3.51;59.57
55315;BME280;41619;42.816;23.226;2023-01-31T11:49:35;95233.06;;;3.38;59.49
55315;BME280;41619;42.816;23.226;2023-01-31T11:52:15;95234.88;;;3.16;59.76
55315;BME280;41619;42.816;23.226;2023-01-31T11:54:46;95234.56;;;3.09;60.04
55315;BME280;41619;42.816;23.226;2023-01-31T11:57:25;95237.47;;;3.04;60.62
55315;BME280;41619;42.816;23.226;2023-01-31T11:59:54;95231.59;;;3.02;60.59
55315;BME280;41619;42.816;23.226;2023-01-31T12:02:25;95235.41;;;3.01;61.05
55315;BME280;41619;42.816;23.226;2023-01-31T12:04:52;95222.34;;;3.03;61.04
55315;BME280;41619;42.816;23.226;2023-01-31T12:07:24;95231.25;;;3.03;61.04
55315;BME280;41619;42.816;23.226;2023-01-31T12:09:50;95227.94;;;2.98;60.97
55315;BME280;41619;42.816;23.226;2023-01-31T12:12:30;95223.00;;;2.91;61.48
55315;BME280;41619;42.816;23.226;2023-01-31T12:15:00;95223.50;;;2.85;61.02
55315;BME280;41619;42.816;23.226;2023-01-31T12:17:28;95235.44;;;2.75;60.89
55315;BME280;41619;42.816;23.226;2023-01-31T12:20:19;95230.38;;;2.65;61.17
55315;BME280;41619;42.816;23.226;2023-01-31T12:28:23;95229.44;;;2.43;61.70
55315;BME280;41619;42.816;23.226;2023-01-31T12:33:51;95223.25;;;2.52;61.81
55315;BME280;41619;42.816;23.226;2023-01-31T12:41:32;95220.72;;;2.47;61.46
55315;BME280;41619;42.816;23.226;2023-01-31T13:00:31;95215.53;;;2.88;61.47
55315;BME280;41619;42.816;23.226;2023-01-31T13:03:12;95211.41;;;2.99;61.56
55315;BME280;41619;42.816;23.226;2023-01-31T13:08:26;95211.03;;;3.10;60.97
55315;BME280;41619;42.816;23.226;2023-01-31T13:16:24;95215.72;;;3.30;61.36
55315;BME280;41619;42.816;23.226;2023-01-31T13:18:55;95215.91;;;3.25;61.11
55315;BME280;41619;42.816;23.226;2023-01-31T13:21:23;95217.03;;;3.15;61.20
55315;BME280;41619;42.816;23.226;2023-01-31T13:24:01;95212.16;;;3.09;61.24
55315;BME280;41619;42.816;23.226;2023-01-31T13:26:49;95213.41;;;3.11;61.59
55315;BME280;41619;42.816;23.226;2023-01-31T13:29:27;95215.06;;;3.33;61.83
55315;BME280;41619;42.816;23.226;2023-01-31T13:32:29;95217.69;;;3.59;61.37
55315;BME280;41619;42.816;23.226;2023-01-31T13:35:03;95220.66;;;3.95;60.45
55315;BME280;41619;42.816;23.226;2023-01-31T13:37:31;95214.00;;;4.14;60.12
55315;BME280;41619;42.816;23.226;2023-01-31T13:40:20;95213.06;;;4.31;60.17
55315;BME280;41619;42.816;23.226;2023-01-31T13:42:46;95205.06;;;4.55;59.75
55315;BME280;41619;42.816;23.226;2023-01-31T13:45:21;95204.22;;;4.75;58.76
55315;BME280;41619;42.816;23.226;2023-01-31T13:48:09;95206.22;;;4.99;58.20
55315;BME280;41619;42.816;23.226;2023-01-31T13:50:50;95212.75;;;4.98;57.95
55315;BME280;41619;42.816;23.226;2023-01-31T13:53:22;95219.03;;;4.78;57.78
55315;BME280;41619;42.816;23.226;2023-01-31T13:55:51;95225.47;;;4.52;57.90
55315;BME280;41619;42.816;23.226;2023-01-31T13:58:21;95221.84;;;4.28;58.48
55315;BME280;41619;42.816;23.226;2023-01-31T14:01:11;95224.75;;;4.02;58.44
55315;BME280;41619;42.816;23.226;2023-01-31T14:14:41;95245.72;;;3.54;60.13
55315;BME280;41619;42.816;23.226;2023-01-31T14:29:45;95255.31;;;4.32;58.58
55315;BME280;41619;42.816;23.226;2023-01-31T14:32:24;95263.06;;;4.75;58.09
55315;BME280;41619;42.816;23.226;2023-01-31T14:34:52;95255.66;;;4.63;57.74
55315;BME280;41619;42.816;23.226;2023-01-31T14:37:35;95257.56;;;4.30;58.15
55315;BME280;41619;42.816;23.226;2023-01-31T14:45:33;95268.09;;;3.63;59.57
55315;BME280;41619;42.816;23.226;2023-01-31T14:50:56;95282.72;;;3.24;60.09
55315;BME280;41619;42.816;23.226;2023-01-31T14:56:52;95298.22;;;2.98;61.06
55315;BME280;41619;42.816;23.226;2023-01-31T15:01:54;95296.81;;;2.83;61.89
55315;BME280;41619;42.816;23.226;2023-01-31T15:04:22;95306.16;;;2.77;61.70
55315;BME280;41619;42.816;23.226;2023-01-31T15:06:51;95310.81;;;2.68;61.66
55315;BME280;41619;42.816;23.226;2023-01-31T15:11:49;95314.31;;;2.42;62.33
55315;BME280;41619;42.816;23.226;2023-01-31T15:14:41;95308.88;;;2.34;62.44
55315;BME280;41619;42.816;23.226;2023-01-31T15:19:51;95308.53;;;2.18;62.48
55315;BME280;41619;42.816;23.226;2023-01-31T15:22:19;95311.38;;;2.13;62.43
55315;BME280;41619;42.816;23.226;2023-01-31T15:24:56;95313.09;;;2.00;62.68
55315;BME280;41619;42.816;23.226;2023-01-31T15:27:31;95322.28;;;1.91;63.05
55315;BME280;41619;42.816;23.226;2023-01-31T15:30:05;95322.91;;;1.88;63.00